サンクトペテルブルク の空港の天気 - METARとTAF

プルコヴォ空港(サンクトペテルブルグ) ( ULLI / LED ) - ロシア サンクトペテルブルク
飛行場実況気象(Metar)
観測時間10/16 10:30 MSK (10/16 07:30 UTC)
風向・風速東 7m/s
視程10km以上
天気現象
少しの雲 雲底高度 370m
全天を覆う雲 雲底高度 700m
気温4℃
湿度81%
気圧1017hPa
METARULLI 160730Z 10007MPS 9999 FEW012 OVC023 04/01 Q1017 R10L/290050 NOSIG
過去の天気等 Google飛行場航空写真 Wunderground天気予報

過去48時間のMETAR

飛行場予報(TAF)
発表時間: 10/16 07:57 MSK (10/16 04:57 UTC)
予報対象時間: 16日9時 MSK ~ 17日9時 MSK
風向・風速東南東 5m/s 瞬間風速 10m/s
視程10km以上
全天の8割程度の雲 雲底高度 610m
16日9時 MSK ~ 16日17時 MSK に一時的に
風向・風速東 8m/s 瞬間風速 13m/s
視程3100m
天気現象弱いしゅう雨
全天の8割程度の雲 雲底高度 340m
全天の8割程度の積乱雲 雲底高度 610m
16日17時 MSK から
風向・風速東 5m/s 瞬間風速 10m/s
視程10km以上
全天の8割程度の雲 雲底高度 460m
16日17時 MSK ~ 16日24時 MSK に一時的に
風向・風速東北東 4m/s
視程4000m
天気現象弱いしゅう雨
全天の8割程度の雲 雲底高度 340m
全天の8割程度の積乱雲 雲底高度 460m
17日0時 MSK ~ 17日2時 MSK に徐々に
風向・風速東北東 3m/s
17日0時 MSK ~ 17日9時 MSK に一時的に
視程3100m
天気現象弱い雨 もや
全天の8割程度の雲 雲底高度 340m
TAF ULLI 160457Z 1606/1706 11005G10MPS 9999 BKN020
TEMPO 1606/1614 10008G13MPS 3100 -SHRA BKN011 BKN020CB
FM161400 08005G10MPS 9999 BKN015
TEMPO 1614/1621 06004MPS 4000 -SHRA BKN011 BKN015CB
BECMG 1621/1623 06003MPS
TEMPO 1621/1706 3100 -RA BR BKN011